createdAt,value
2022-11-16T00:04:05.862Z,10.80
2022-11-16T00:09:30.946Z,10.80
2022-11-16T00:14:35.302Z,10.80
2022-11-16T00:19:37.522Z,10.80
2022-11-16T00:24:39.749Z,10.70
2022-11-16T00:29:41.962Z,10.70
2022-11-16T00:34:44.206Z,10.60
2022-11-16T00:39:46.412Z,10.60
2022-11-16T00:44:48.760Z,10.60
2022-11-16T00:49:51.011Z,10.60
2022-11-16T00:54:53.247Z,10.60
2022-11-16T00:59:55.866Z,10.60
2022-11-16T01:04:58.893Z,10.60
2022-11-16T01:10:01.235Z,10.60
2022-11-16T01:15:04.239Z,10.60
2022-11-16T01:20:10.752Z,10.60
2022-11-16T01:25:14.326Z,10.60
2022-11-16T01:30:17.033Z,10.60
2022-11-16T01:35:29.080Z,10.60
2022-11-16T01:40:31.341Z,10.60
2022-11-16T01:45:41.294Z,10.60
2022-11-16T01:50:48.761Z,10.50
2022-11-16T01:55:51.535Z,10.50
2022-11-16T02:01:00.664Z,10.50
2022-11-16T02:22:04.483Z,10.50
2022-11-16T02:32:48.513Z,10.10
2022-11-16T02:37:57.978Z,10.10
2022-11-16T02:43:07.534Z,10.00
2022-11-16T02:48:16.865Z,10.00
2022-11-16T02:53:21.737Z,9.90
2022-11-16T02:58:26.480Z,9.90
2022-11-16T03:03:41.841Z,9.90
2022-11-16T03:08:50.821Z,9.80
2022-11-16T03:14:00.087Z,9.80
2022-11-16T03:19:07.709Z,9.90
2022-11-16T03:24:10.361Z,9.80
2022-11-16T03:29:29.472Z,9.80
2022-11-16T03:34:38.077Z,9.80
2022-11-16T03:39:42.172Z,9.70
2022-11-16T03:44:46.681Z,9.60
2022-11-16T03:49:49.039Z,9.50
2022-11-16T03:54:53.820Z,9.50
2022-11-16T03:59:57.075Z,9.40
2022-11-16T04:05:19.360Z,9.20
2022-11-16T04:10:41.615Z,9.10
2022-11-16T04:16:03.831Z,8.90
2022-11-16T04:21:28.410Z,8.80
2022-11-16T04:26:50.822Z,8.60
2022-11-16T04:32:13.108Z,8.60
2022-11-16T04:37:37.353Z,8.40
2022-11-16T04:42:41.268Z,8.20
2022-11-16T04:47:44.832Z,8.00
2022-11-16T04:52:47.440Z,7.80
2022-11-16T04:57:51.248Z,7.70
2022-11-16T05:02:56.903Z,7.50
2022-11-16T05:08:04.033Z,7.30
2022-11-16T05:13:07.986Z,7.20
2022-11-16T05:18:10.365Z,7.00
2022-11-16T05:23:32.582Z,6.90
2022-11-16T05:28:40.469Z,6.70
2022-11-16T05:33:45.302Z,6.70
2022-11-16T05:38:51.617Z,6.70
2022-11-16T05:43:59.570Z,6.80
2022-11-16T05:49:02.225Z,6.70
2022-11-16T05:54:06.533Z,6.80
2022-11-16T05:59:13.726Z,6.80
2022-11-16T06:04:24.580Z,7.00
2022-11-16T06:09:28.649Z,6.90
2022-11-16T06:14:34.450Z,6.90
2022-11-16T06:19:36.874Z,6.90
2022-11-16T06:24:39.153Z,7.00
2022-11-16T06:29:41.384Z,6.90
2022-11-16T06:34:43.674Z,7.00
2022-11-16T06:39:47.247Z,7.30
2022-11-16T06:44:49.857Z,7.50
2022-11-16T06:49:56.975Z,7.80
2022-11-16T06:54:59.665Z,8.10
2022-11-16T07:00:08.002Z,8.50
2022-11-16T07:05:12.546Z,8.60
2022-11-16T07:10:16.225Z,9.50
2022-11-16T07:15:19.615Z,9.80
2022-11-16T07:20:23.409Z,11.50
2022-11-16T07:25:26.289Z,14.00
2022-11-16T07:30:29.002Z,15.00
2022-11-16T07:35:38.218Z,16.60
2022-11-16T07:40:40.531Z,17.50
2022-11-16T07:45:43.091Z,17.90
2022-11-16T07:50:46.147Z,18.10
2022-11-16T07:55:53.755Z,18.40
2022-11-16T08:01:15.965Z,18.40
2022-11-16T08:06:30.129Z,18.20
2022-11-16T08:11:32.500Z,18.20
2022-11-16T08:16:35.111Z,17.80
2022-11-16T08:21:45.866Z,17.10
2022-11-16T08:26:50.753Z,16.40
2022-11-16T08:31:53.018Z,15.80
2022-11-16T08:36:57.082Z,15.70
2022-11-16T08:42:08.647Z,16.20
2022-11-16T08:47:11.557Z,17.20
2022-11-16T08:52:28.038Z,17.40
2022-11-16T08:57:31.572Z,16.90
2022-11-16T09:02:37.508Z,16.30
2022-11-16T09:07:40.793Z,15.80
2022-11-16T09:12:43.131Z,15.40
2022-11-16T09:17:45.694Z,15.00
2022-11-16T09:22:48.190Z,14.70
2022-11-16T09:27:50.369Z,14.60
2022-11-16T09:32:52.717Z,14.40
2022-11-16T09:37:54.995Z,14.30
2022-11-16T09:48:25.406Z,14.00
2022-11-16T10:09:30.364Z,14.40
2022-11-16T10:15:01.609Z,14.50
2022-11-16T10:25:42.041Z,14.50
2022-11-16T10:30:54.788Z,14.70
2022-11-16T10:35:57.923Z,14.60
2022-11-16T10:41:13.500Z,14.90
2022-11-16T10:46:25.732Z,14.90
2022-11-16T10:51:27.930Z,15.10
2022-11-16T11:12:39.291Z,15.40
2022-11-16T11:17:44.772Z,15.50
2022-11-16T11:28:27.748Z,15.80
2022-11-16T11:33:38.392Z,16.30
2022-11-16T11:49:34.834Z,16.50
2022-11-16T11:54:46.004Z,16.70
2022-11-16T11:59:50.607Z,16.80
2022-11-16T12:21:04.666Z,16.70
2022-11-16T12:26:20.923Z,17.10
2022-11-16T13:14:00.515Z,17.20
2022-11-16T13:19:06.977Z,16.80
2022-11-16T13:34:41.596Z,16.60
2022-11-16T13:45:23.433Z,16.30
2022-11-16T13:50:37.252Z,16.00
2022-11-16T13:55:46.571Z,15.70
2022-11-16T14:01:04.600Z,15.10
2022-11-16T14:11:38.953Z,14.70
2022-11-16T14:16:50.660Z,14.50
2022-11-16T14:22:09.670Z,14.20
2022-11-16T14:37:40.358Z,14.00
2022-11-16T14:43:16.623Z,14.00
2022-11-16T14:48:21.923Z,14.20
2022-11-16T14:53:25.273Z,14.30
2022-11-16T14:58:27.463Z,14.30
2022-11-16T15:03:36.935Z,14.30
2022-11-16T15:08:46.624Z,14.30
2022-11-16T15:13:49.331Z,14.30
2022-11-16T15:19:01.878Z,14.30
2022-11-16T15:29:26.724Z,14.20
2022-11-16T15:34:29.008Z,14.20
2022-11-16T15:39:35.789Z,14.10
2022-11-16T15:44:39.254Z,14.10
2022-11-16T15:49:42.665Z,14.10
2022-11-16T15:55:04.898Z,14.00
2022-11-16T16:00:21.458Z,14.10
2022-11-16T16:05:41.015Z,14.00
2022-11-16T16:10:43.272Z,14.00
2022-11-16T16:15:45.530Z,14.00
2022-11-16T16:20:49.377Z,14.00
2022-11-16T16:25:51.544Z,14.00
2022-11-16T16:30:53.720Z,14.00
2022-11-16T16:35:55.945Z,14.00
2022-11-16T16:41:02.617Z,14.00
2022-11-16T16:46:05.024Z,13.90
2022-11-16T16:51:10.081Z,13.90
2022-11-16T16:56:16.564Z,13.80
2022-11-16T17:01:18.775Z,13.80
2022-11-16T17:06:21.108Z,13.80
2022-11-16T17:11:23.746Z,13.80
2022-11-16T17:16:26.164Z,13.80
2022-11-16T17:21:28.421Z,13.80
2022-11-16T17:26:30.621Z,13.80
2022-11-16T17:31:32.803Z,13.70
2022-11-16T17:36:35.001Z,13.70
2022-11-16T17:41:37.577Z,13.80
2022-11-16T17:46:39.776Z,13.80
2022-11-16T17:51:42.330Z,13.80
2022-11-16T17:56:44.518Z,13.80
2022-11-16T18:01:46.920Z,13.90
2022-11-16T18:06:49.196Z,13.80
2022-11-16T18:11:51.391Z,13.80
2022-11-16T18:16:53.609Z,13.90
2022-11-16T18:21:55.847Z,13.90
2022-11-16T18:26:58.045Z,13.90
2022-11-16T18:32:00.670Z,13.90
2022-11-16T18:37:03.133Z,13.90
2022-11-16T18:42:05.453Z,13.90
2022-11-16T18:47:07.709Z,13.90
2022-11-16T18:52:09.942Z,13.80
2022-11-16T18:57:12.158Z,13.80
2022-11-16T19:02:14.565Z,13.80
2022-11-16T19:07:16.971Z,13.70
2022-11-16T19:12:19.193Z,13.70
2022-11-16T19:17:24.554Z,13.60
2022-11-16T19:22:26.724Z,13.60
2022-11-16T19:27:29.659Z,13.60
2022-11-16T19:32:32.255Z,13.50
2022-11-16T19:37:34.484Z,13.50
2022-11-16T19:42:36.829Z,13.50
2022-11-16T19:47:39.374Z,13.50
2022-11-16T19:52:43.577Z,13.50
2022-11-16T19:57:45.832Z,13.40
2022-11-16T20:02:47.997Z,13.40
2022-11-16T20:07:50.689Z,13.30
2022-11-16T20:12:52.895Z,13.30
2022-11-16T20:17:55.070Z,13.40
2022-11-16T20:22:57.235Z,13.40
2022-11-16T20:27:59.475Z,13.40
2022-11-16T20:33:01.660Z,13.40
2022-11-16T20:38:03.822Z,13.40
2022-11-16T20:43:06.333Z,13.40
2022-11-16T20:48:08.622Z,13.40
2022-11-16T20:53:10.821Z,13.40
2022-11-16T20:58:13.337Z,13.40
2022-11-16T21:03:17.073Z,13.50
2022-11-16T21:08:19.725Z,13.40
2022-11-16T21:13:42.239Z,13.50
2022-11-16T21:18:44.448Z,13.50
2022-11-16T21:23:51.678Z,13.50
2022-11-16T21:28:54.404Z,13.40
2022-11-16T21:33:57.578Z,13.40
2022-11-16T21:39:00.477Z,13.40
2022-11-16T21:44:02.687Z,13.40
2022-11-16T21:49:04.908Z,13.40
2022-11-16T21:54:07.087Z,13.40
2022-11-16T21:59:09.253Z,13.40
2022-11-16T22:04:32.945Z,13.50
2022-11-16T22:09:35.208Z,13.50
2022-11-16T22:14:37.496Z,13.50
2022-11-16T22:19:39.767Z,13.60
2022-11-16T22:24:41.973Z,13.60
2022-11-16T22:29:44.581Z,13.60
2022-11-16T22:34:47.010Z,13.70
2022-11-16T22:39:49.193Z,13.70
2022-11-16T22:44:51.370Z,13.70
2022-11-16T22:49:53.745Z,13.70
2022-11-16T22:54:55.933Z,13.80
2022-11-16T22:59:58.117Z,13.80
2022-11-16T23:05:00.308Z,13.80
2022-11-16T23:10:02.511Z,13.80
2022-11-16T23:15:24.911Z,13.70
2022-11-16T23:20:47.016Z,13.70
2022-11-16T23:26:09.159Z,13.60
2022-11-16T23:31:11.330Z,13.60
2022-11-16T23:36:14.203Z,13.60
2022-11-16T23:41:36.282Z,13.60
2022-11-16T23:46:38.548Z,13.50
2022-11-16T23:51:40.794Z,13.50
2022-11-16T23:56:43.034Z,13.50
